Time;durP1;ratioP1;P1;durP2;ratioP2;P2;SDS_P1;SDS_P2;PMS_P1;PMS_P2;Temp;Humidity;BMP_temperature;BMP_pressure;BME280_temperature;BME280_humidity;BME280_pressure;Samples;Min_cycle;Max_cycle;Signal;HPM_P1;HPM_P2
2023/01/25 00:02:15;;;;;;;40.95;29.77;;;3.30;99.90;;;;;;5069654;28;20120;-59
2023/01/25 00:04:40;;;;;;;40.90;31.10;;;3.30;99.90;;;;;;5087043;28;20110;-59
2023/01/25 00:07:06;;;;;;;37.20;28.25;;;3.50;99.90;;;;;;5054947;28;20092;-60
2023/01/25 00:09:31;;;;;;;43.20;32.60;;;2.70;99.90;;;;;;5053081;28;20053;-59
2023/01/25 00:11:57;;;;;;;40.63;29.60;;;2.90;99.90;;;;;;5053156;28;20044;-60
2023/01/25 00:14:23;;;;;;;39.85;28.88;;;3.10;99.90;;;;;;5050997;28;20041;-59
2023/01/25 00:16:49;;;;;;;44.60;30.45;;;2.80;99.90;;;;;;5053145;28;20037;-59
2023/01/25 00:19:15;;;;;;;46.72;32.60;;;3.10;99.90;;;;;;5053605;28;20131;-59
2023/01/25 00:21:40;;;;;;;44.25;31.35;;;2.80;99.90;;;;;;5054102;28;20048;-59
2023/01/25 00:24:06;;;;;;;43.25;31.35;;;3.30;99.90;;;;;;5052614;28;20055;-59
2023/01/25 00:26:33;;;;;;;48.45;32.30;;;3.50;1.00;;;;;;5042205;28;20100;-59
2023/01/25 00:28:59;;;;;;;44.08;33.00;;;3.00;1.00;;;;;;5052436;28;20033;-59
2023/01/25 00:31:33;;;;;;;45.13;30.65;;;3.00;1.00;;;;;;5037907;28;20033;-59
2023/01/25 00:34:20;;;;;;;41.47;30.33;;;2.90;1.00;;;;;;5042087;28;20032;-60
2023/01/25 00:37:09;;;;;;;48.92;32.88;;;3.30;1.00;;;;;;5047746;28;20755;-60
2023/01/25 00:39:34;;;;;;;50.25;34.63;;;3.30;1.00;;;;;;5038874;28;20052;-59
2023/01/25 00:42:00;;;;;;;51.30;33.10;;;2.60;1.00;;;;;;5051969;28;20087;-59
2023/01/25 00:44:25;;;;;;;47.75;31.48;;;2.60;1.00;;;;;;5049855;28;20040;-59
2023/01/25 00:46:51;;;;;;;271.98;44.00;;;2.80;1.00;;;;;;5068675;28;20040;-60
2023/01/25 00:49:22;;;;;;;49.85;32.53;;;2.50;70.20;;;;;;5056719;28;20112;-60
2023/01/25 00:51:49;;;;;;;46.85;30.15;;;3.30;90.60;;;;;;5065339;28;20437;-60
2023/01/25 00:54:15;;;;;;;47.00;32.08;;;2.60;97.20;;;;;;5051528;28;20029;-60
2023/01/25 00:56:40;;;;;;;45.22;32.47;;;3.20;99.90;;;;;;5052973;28;20098;-60
2023/01/25 00:59:06;;;;;;;44.70;33.00;;;2.50;99.90;;;;;;5052966;28;20032;-60
2023/01/25 01:01:33;;;;;;;45.05;32.88;;;2.70;99.90;;;;;;5051609;28;20041;-60
2023/01/25 01:03:59;;;;;;;49.60;32.60;;;3.10;99.90;;;;;;5051519;28;20033;-59
2023/01/25 01:06:24;;;;;;;47.95;32.28;;;3.30;99.90;;;;;;5052007;28;20052;-60
2023/01/25 01:08:50;;;;;;;46.10;32.50;;;2.60;99.90;;;;;;5052982;28;20388;-60
2023/01/25 01:11:15;;;;;;;49.45;34.33;;;2.70;99.90;;;;;;5051469;28;20048;-60
2023/01/25 01:13:41;;;;;;;49.15;35.80;;;2.70;99.90;;;;;;5050892;28;20040;-60
2023/01/25 01:16:10;;;;;;;49.08;34.08;;;2.50;99.90;;;;;;5050975;28;20087;-60
2023/01/25 01:18:42;;;;;;;46.45;34.33;;;2.50;99.90;;;;;;5054265;28;20111;-60
2023/01/25 01:21:08;;;;;;;46.72;32.55;;;3.40;99.90;;;;;;5071580;28;20047;-60
2023/01/25 01:23:34;;;;;;;48.13;34.80;;;3.50;1.00;;;;;;5052747;28;20033;-59
2023/01/25 01:26:02;;;;;;;53.05;36.17;;;2.60;1.00;;;;;;5051918;28;20065;-60
2023/01/25 01:28:32;;;;;;;52.47;35.85;;;3.40;1.00;;;;;;5048145;28;20037;-62
2023/01/25 01:31:07;;;;;;;43.40;30.98;;;2.80;1.00;;;;;;5050302;28;20091;-59
2023/01/25 01:33:33;;;;;;;53.63;35.80;;;2.80;1.00;;;;;;5053398;28;20068;-60
2023/01/25 01:36:09;;;;;;;53.25;36.35;;;3.40;1.00;;;;;;5061343;28;20075;-60
2023/01/25 01:38:35;;;;;;;57.13;36.90;;;3.30;1.00;;;;;;5062050;28;20044;-60
2023/01/25 01:41:00;;;;;;;56.03;38.03;;;3.40;1.00;;;;;;5050871;28;20033;-59
2023/01/25 01:43:26;;;;;;;54.42;38.88;;;3.20;1.00;;;;;;5052117;28;20064;-60
2023/01/25 01:45:55;;;;;;;52.67;36.13;;;2.50;1.00;;;;;;5050494;28;20047;-60
2023/01/25 01:48:53;;;;;;;62.83;43.20;;;3.40;1.00;;;;;;5053838;28;20037;-60
2023/01/25 01:51:48;;;;;;;62.00;42.97;;;3.20;1.00;;;;;;5050777;28;20033;-59
2023/01/25 01:54:17;;;;;;;62.42;42.92;;;3.30;8.00;;;;;;5052299;28;20048;-59
2023/01/25 01:57:16;;;;;;;59.45;38.17;;;3.40;52.70;;;;;;5047095;28;20040;-60
2023/01/25 01:59:50;;;;;;;61.40;43.17;;;3.60;95.30;;;;;;5029614;28;20136;-59
2023/01/25 02:02:16;;;;;;;60.65;41.95;;;3.60;99.90;;;;;;5052299;28;20041;-59
2023/01/25 02:04:45;;;;;;;65.60;41.95;;;2.90;99.90;;;;;;5044014;28;20051;-61
2023/01/25 02:07:21;;;;;;;64.03;42.40;;;3.30;99.90;;;;;;5049462;28;20049;-59
2023/01/25 02:09:49;;;;;;;59.20;36.97;;;3.50;99.90;;;;;;5050265;28;20513;-60
2023/01/25 02:12:16;;;;;;;60.45;39.50;;;2.90;99.90;;;;;;5052172;28;20040;-59
2023/01/25 02:14:48;;;;;;;68.55;44.60;;;2.80;99.90;;;;;;5056906;28;20052;-60
2023/01/25 02:17:13;;;;;;;58.03;36.78;;;2.60;99.90;;;;;;5055408;28;20040;-60
2023/01/25 02:20:14;;;;;;;57.40;35.08;;;2.40;1.00;;;;;;5070162;28;20109;-60
2023/01/25 02:23:14;;;;;;;59.60;39.65;;;3.40;1.00;;;;;;5078730;28;20060;-60
2023/01/25 02:25:40;;;;;;;64.32;42.67;;;2.70;1.00;;;;;;5078578;28;20190;-59
2023/01/25 02:28:15;;;;;;;66.07;41.15;;;3.40;1.00;;;;;;5058686;28;20422;-60
2023/01/25 02:30:41;;;;;;;52.85;35.40;;;3.20;1.00;;;;;;5048948;28;20118;-60
2023/01/25 02:33:07;;;;;;;62.47;42.42;;;2.80;1.00;;;;;;5055349;28;20047;-59
2023/01/25 02:35:43;;;;;;;64.85;43.97;;;3.30;1.40;;;;;;5059294;28;20037;-59
2023/01/25 02:38:11;;;;;;;;;;;2.50;24.60;;;;;;5055190;28;20029;-59
2023/01/25 02:40:44;;;;;;;63.75;40.90;;;2.80;39.70;;;;;;5047977;28;19917;-60
2023/01/25 02:43:10;;;;;;;68.65;41.72;;;3.30;49.50;;;;;;5057476;28;20040;-59
2023/01/25 02:45:36;;;;;;;138.25;38.45;;;2.50;53.90;;;;;;5058169;28;20533;-60
2023/01/25 02:48:01;;;;;;;67.30;43.10;;;2.90;72.00;;;;;;5056301;28;20418;-60
2023/01/25 02:50:27;;;;;;;65.43;41.92;;;2.70;99.00;;;;;;5073586;28;20040;-60
2023/01/25 02:52:52;;;;;;;67.88;43.25;;;3.70;99.80;;;;;;5056480;28;20043;-60
2023/01/25 02:55:18;;;;;;;69.03;45.25;;;3.60;99.90;;;;;;5058183;28;20084;-61
2023/01/25 02:57:44;;;;;;;71.30;45.17;;;3.30;99.90;;;;;;5056753;28;20064;-62
2023/01/25 03:00:10;;;;;;;64.05;41.80;;;3.30;99.90;;;;;;5022964;28;20045;-60
2023/01/25 03:02:35;;;;;;;62.83;41.60;;;3.70;99.90;;;;;;5056777;28;20084;-60
2023/01/25 03:05:01;;;;;;;66.13;43.80;;;3.30;99.90;;;;;;5058147;28;20072;-60
2023/01/25 03:07:26;;;;;;;65.43;42.75;;;2.80;99.90;;;;;;5056842;28;20589;-60
2023/01/25 03:09:52;;;;;;;68.15;43.67;;;3.70;99.90;;;;;;5056301;28;20056;-61
2023/01/25 03:12:18;;;;;;;64.50;42.90;;;3.10;99.90;;;;;;5052828;28;20494;-59
2023/01/25 03:14:43;;;;;;;62.60;41.75;;;3.80;99.90;;;;;;5057838;28;20037;-60
2023/01/25 03:17:09;;;;;;;65.05;41.35;;;2.70;99.90;;;;;;5056771;28;20037;-60
2023/01/25 03:19:35;;;;;;;66.32;42.97;;;2.90;99.90;;;;;;5061500;28;20513;-60
2023/01/25 03:22:01;;;;;;;62.63;40.85;;;2.90;99.90;;;;;;5054880;28;20045;-60
2023/01/25 03:24:26;;;;;;;62.80;41.40;;;2.80;99.90;;;;;;5056930;28;20119;-60
2023/01/25 03:27:10;;;;;;;66.97;43.35;;;3.20;99.90;;;;;;5053749;28;20041;-61
2023/01/25 03:29:37;;;;;;;56.60;37.78;;;3.80;99.90;;;;;;5052499;28;20479;-60
2023/01/25 03:32:03;;;;;;;62.17;40.45;;;3.60;99.90;;;;;;5052576;28;20052;-60
2023/01/25 03:34:28;;;;;;;60.63;39.20;;;2.90;99.90;;;;;;5054375;28;20051;-60
2023/01/25 03:36:54;;;;;;;64.00;41.97;;;3.80;1.00;;;;;;5054809;28;20508;-59
2023/01/25 03:39:20;;;;;;;64.15;41.92;;;3.90;1.00;;;;;;5054046;28;20041;-60
2023/01/25 03:41:45;;;;;;;62.50;40.67;;;3.90;1.00;;;;;;5049802;28;20045;-60
2023/01/25 03:44:11;;;;;;;59.85;40.58;;;3.60;1.00;;;;;;5054391;28;20048;-60
2023/01/25 03:46:38;;;;;;;58.65;40.05;;;3.70;1.00;;;;;;5053302;28;20044;-60
2023/01/25 03:49:04;;;;;;;56.20;36.60;;;3.00;1.00;;;;;;5053139;28;20526;-60
2023/01/25 03:51:29;;;;;;;53.70;37.72;;;3.50;1.00;;;;;;5050471;28;20033;-60
2023/01/25 03:53:55;;;;;;;68.85;42.22;;;3.50;1.00;;;;;;5053876;28;20486;-60
2023/01/25 03:56:20;;;;;;;60.60;40.22;;;3.40;1.00;;;;;;5051807;28;20130;-60
2023/01/25 03:58:46;;;;;;;68.18;44.70;;;3.50;1.00;;;;;;5053971;28;20402;-59
2023/01/25 04:01:12;;;;;;;74.35;46.03;;;2.80;1.00;;;;;;5053731;28;20567;-59
2023/01/25 04:03:38;;;;;;;65.03;38.97;;;3.00;1.00;;;;;;5051954;28;20064;-60
2023/01/25 04:06:04;;;;;;;61.85;40.53;;;3.60;1.00;;;;;;5051339;28;20498;-59
2023/01/25 04:08:30;;;;;;;58.55;40.22;;;3.60;1.00;;;;;;5052736;28;20520;-60
2023/01/25 04:11:00;;;;;;;64.50;39.40;;;2.90;1.00;;;;;;5037016;28;20041;-59
2023/01/25 04:13:27;;;;;;;66.10;42.42;;;2.80;17.40;;;;;;5033751;28;20095;-60
2023/01/25 04:15:53;;;;;;;57.90;36.58;;;3.80;43.30;;;;;;5033848;28;20049;-60
2023/01/25 04:18:19;;;;;;;66.00;45.53;;;3.00;66.30;;;;;;5034278;28;20410;-59
2023/01/25 04:20:44;;;;;;;67.85;45.65;;;3.00;91.10;;;;;;5049637;28;20111;-59
2023/01/25 04:23:11;;;;;;;64.25;44.03;;;2.80;99.90;;;;;;5068520;28;20033;-59
2023/01/25 04:25:37;;;;;;;63.85;40.70;;;3.90;99.90;;;;;;5052609;28;20044;-60
2023/01/25 04:28:03;;;;;;;59.42;39.65;;;3.80;99.90;;;;;;5052270;28;20048;-60
2023/01/25 04:30:28;;;;;;;60.35;41.67;;;3.80;99.90;;;;;;5053690;28;20487;-60
2023/01/25 04:32:54;;;;;;;58.42;39.05;;;3.60;99.90;;;;;;5052402;28;20051;-59
2023/01/25 04:35:20;;;;;;;57.65;40.47;;;3.40;99.90;;;;;;5052633;28;20099;-59
2023/01/25 04:37:54;;;;;;;56.28;38.70;;;3.40;99.90;;;;;;5053635;28;20069;-61
2023/01/25 04:40:19;;;;;;;65.15;45.60;;;2.80;99.90;;;;;;5054292;28;20037;-59
2023/01/25 04:42:45;;;;;;;64.22;44.05;;;3.80;99.90;;;;;;5053536;28;20120;-59
2023/01/25 04:45:10;;;;;;;55.72;36.65;;;3.60;99.90;;;;;;5053537;28;20064;-59
2023/01/25 04:47:36;;;;;;;55.35;37.80;;;2.80;99.90;;;;;;5051541;28;20378;-61
2023/01/25 04:50:01;;;;;;;66.18;45.42;;;3.80;99.90;;;;;;5053506;28;20042;-59
2023/01/25 04:52:27;;;;;;;63.72;45.47;;;3.20;99.90;;;;;;5068390;28;20029;-59
2023/01/25 04:54:52;;;;;;;65.00;46.17;;;3.00;99.90;;;;;;5051765;28;20162;-60
2023/01/25 04:57:18;;;;;;;66.43;47.78;;;3.80;99.90;;;;;;5052939;28;20387;-60
2023/01/25 04:59:44;;;;;;;67.47;48.55;;;3.40;99.90;;;;;;5050568;28;20563;-59
2023/01/25 05:02:09;;;;;;;58.15;39.38;;;3.30;99.90;;;;;;5051348;28;20068;-59
2023/01/25 05:04:35;;;;;;;65.38;43.90;;;3.80;99.90;;;;;;5053017;28;20040;-60
2023/01/25 05:07:00;;;;;;;62.63;43.05;;;3.40;1.00;;;;;;5052919;28;20049;-60
2023/01/25 05:09:26;;;;;;;52.25;34.72;;;3.20;99.90;;;;;;5052114;28;20044;-60
2023/01/25 05:11:51;;;;;;;55.05;36.72;;;4.10;99.90;;;;;;5052447;28;20060;-62
2023/01/25 05:14:17;;;;;;;51.88;35.22;;;3.90;99.90;;;;;;5051635;28;20513;-60
2023/01/25 05:16:42;;;;;;;54.45;36.92;;;3.70;99.90;;;;;;5054546;28;20037;-61
2023/01/25 05:19:09;;;;;;;60.20;41.05;;;3.20;99.90;;;;;;5071534;28;20043;-60
2023/01/25 05:24:18;;;;;;;48.15;32.35;;;2.90;1.00;;;;;;5052011;28;20466;-60
2023/01/25 05:26:59;;;;;;;57.72;39.72;;;3.20;1.00;;;;;;5052425;28;20124;-59
2023/01/25 05:29:26;;;;;;;52.67;35.55;;;4.00;1.00;;;;;;5051308;28;20045;-60
2023/01/25 05:31:51;;;;;;;58.10;36.60;;;3.00;1.00;;;;;;5036188;28;20047;-60
2023/01/25 05:34:17;;;;;;;60.38;39.85;;;3.80;1.00;;;;;;5051067;28;20036;-60
2023/01/25 05:36:42;;;;;;;62.03;39.75;;;3.80;1.00;;;;;;5051870;28;20463;-60
2023/01/25 05:39:08;;;;;;;53.55;35.67;;;2.80;1.00;;;;;;5049008;28;20037;-61
2023/01/25 05:41:33;;;;;;;58.53;38.22;;;3.80;15.40;;;;;;5033237;28;20438;-60
2023/01/25 05:43:59;;;;;;;66.82;40.08;;;3.70;32.90;;;;;;5044692;28;20038;-60
2023/01/25 05:46:27;;;;;;;65.10;40.58;;;3.70;73.10;;;;;;5048268;28;20040;-60
2023/01/25 05:48:52;;;;;;;64.82;40.00;;;3.00;99.90;;;;;;5062943;28;20508;-61
2023/01/25 05:51:18;;;;;;;61.78;38.63;;;3.70;99.90;;;;;;5052289;28;20041;-60
2023/01/25 05:53:43;;;;;;;64.20;39.47;;;3.00;99.90;;;;;;5049531;28;20069;-60
2023/01/25 05:56:09;;;;;;;64.03;40.92;;;3.70;99.90;;;;;;5050650;28;20041;-60
2023/01/25 05:58:35;;;;;;;65.28;40.70;;;4.10;99.90;;;;;;5038666;28;20041;-59
2023/01/25 06:01:02;;;;;;;66.57;40.28;;;3.80;99.90;;;;;;5052127;28;20033;-59
2023/01/25 06:03:28;;;;;;;62.45;39.83;;;3.70;99.90;;;;;;5051483;28;20099;-59
2023/01/25 06:06:00;;;;;;;58.03;37.65;;;3.10;99.90;;;;;;5052201;28;20033;-60
2023/01/25 06:08:26;;;;;;;62.97;39.72;;;3.10;99.90;;;;;;5051838;28;20545;-61
2023/01/25 06:10:52;;;;;;;58.35;34.53;;;3.80;99.90;;;;;;5051112;28;20056;-61
2023/01/25 06:13:17;;;;;;;62.90;42.90;;;3.30;99.90;;;;;;5048583;28;20044;-59
2023/01/25 06:15:54;;;;;;;63.75;39.80;;;3.90;99.90;;;;;;5043959;28;20045;-59
2023/01/25 06:18:20;;;;;;;61.40;38.30;;;3.00;1.00;;;;;;5072131;28;20043;-60
2023/01/25 06:20:46;;;;;;;59.58;37.22;;;3.70;1.00;;;;;;5052294;28;20426;-59
2023/01/25 06:23:12;;;;;;;60.45;37.47;;;3.00;1.00;;;;;;5048643;28;20045;-59
2023/01/25 06:25:37;;;;;;;60.53;37.75;;;3.90;2.60;;;;;;5047503;28;20124;-60
2023/01/25 06:28:03;;;;;;;62.42;37.22;;;4.10;53.70;;;;;;5021762;28;20084;-59
2023/01/25 06:30:29;;;;;;;62.83;38.67;;;3.00;92.70;;;;;;5043630;28;20080;-60
2023/01/25 06:32:57;;;;;;;62.08;37.67;;;3.60;99.10;;;;;;5050038;28;20041;-59
2023/01/25 06:35:22;;;;;;;62.35;38.20;;;3.50;99.90;;;;;;5050254;28;20116;-59
2023/01/25 06:37:48;;;;;;;59.30;35.33;;;3.30;99.90;;;;;;5048998;28;20116;-59
2023/01/25 06:40:14;;;;;;;58.60;36.60;;;3.50;99.90;;;;;;5049512;28;20033;-60
2023/01/25 06:42:40;;;;;;;58.20;35.95;;;4.00;99.90;;;;;;5049478;28;20073;-59
2023/01/25 06:45:06;;;;;;;61.80;36.83;;;3.10;99.90;;;;;;5056127;28;20513;-61
2023/01/25 06:47:31;;;;;;;60.25;33.25;;;2.90;81.10;;;;;;5055210;28;20121;-59
2023/01/25 06:49:57;;;;;;;62.20;37.25;;;3.90;99.90;;;;;;5058099;28;20041;-61
2023/01/25 06:52:23;;;;;;;54.97;34.95;;;3.90;99.90;;;;;;5048905;28;20045;-59
2023/01/25 06:54:48;;;;;;;63.90;36.75;;;2.80;99.90;;;;;;5050879;28;20037;-60
2023/01/25 06:57:14;;;;;;;53.17;32.65;;;3.60;99.90;;;;;;5046263;28;20384;-60
2023/01/25 06:59:39;;;;;;;44.35;28.15;;;3.90;99.90;;;;;;5052534;28;20505;-61
2023/01/25 07:02:05;;;;;;;60.22;32.90;;;2.80;1.00;;;;;;5053831;28;20037;-60
2023/01/25 07:04:31;;;;;;;52.03;32.00;;;3.70;1.00;;;;;;5054751;28;20122;-60
2023/01/25 07:06:56;;;;;;;54.20;33.20;;;3.20;1.00;;;;;;5053167;28;20052;-60
2023/01/25 07:09:23;;;;;;;53.88;32.22;;;2.80;1.00;;;;;;5051087;28;20064;-60
2023/01/25 07:11:49;;;;;;;51.58;30.77;;;4.00;1.00;;;;;;5056738;28;20068;-59
2023/01/25 07:14:15;;;;;;;53.03;33.70;;;3.20;34.80;;;;;;5053890;28;20503;-59
2023/01/25 07:16:41;;;;;;;57.53;36.90;;;4.00;73.60;;;;;;5057135;28;20163;-59
2023/01/25 07:19:10;;;;;;;52.25;30.35;;;3.20;99.90;;;;;;5072394;28;20040;-62
2023/01/25 07:21:36;;;;;;;55.83;35.15;;;3.40;99.90;;;;;;5052253;28;20033;-59
2023/01/25 07:24:03;;;;;;;62.00;35.50;;;3.00;99.90;;;;;;5056124;28;20037;-60
2023/01/25 07:26:30;;;;;;;70.15;37.03;;;2.90;99.90;;;;;;5054391;28;20413;-60
2023/01/25 07:28:56;;;;;;;66.65;36.15;;;2.80;99.90;;;;;;5052401;28;20051;-60
2023/01/25 07:31:22;;;;;;;75.13;37.70;;;3.50;99.90;;;;;;5057569;28;20049;-59
2023/01/25 07:33:53;;;;;;;61.88;32.03;;;3.10;99.90;;;;;;5056768;28;20071;-59
2023/01/25 07:36:19;;;;;;;51.70;26.95;;;4.10;99.90;;;;;;5056901;28;20044;-59
2023/01/25 07:38:45;;;;;;;56.22;29.90;;;3.00;99.90;;;;;;5056934;28;20037;-60
2023/01/25 07:41:11;;;;;;;50.40;28.42;;;2.80;99.90;;;;;;5060640;28;20032;-59
2023/01/25 07:43:37;;;;;;;56.65;30.50;;;4.10;99.90;;;;;;5052471;28;20040;-59
2023/01/25 07:46:05;;;;;;;57.92;33.40;;;2.80;99.90;;;;;;5084842;28;20091;-59
2023/01/25 07:48:32;;;;;;;63.45;37.28;;;3.70;99.90;;;;;;5049393;28;20034;-63
2023/01/25 07:51:21;;;;;;;64.25;30.08;;;4.10;1.00;;;;;;5030882;28;20419;-59
2023/01/25 07:53:54;;;;;;;56.70;31.35;;;3.00;1.00;;;;;;5050893;28;20041;-61
2023/01/25 07:56:22;;;;;;;60.00;33.25;;;2.70;1.00;;;;;;5053809;28;20570;-59
2023/01/25 07:58:48;;;;;;;70.18;36.75;;;3.60;50.30;;;;;;5053420;28;20041;-60
2023/01/25 08:01:18;;;;;;;78.95;39.42;;;3.90;99.90;;;;;;5059343;28;20609;-59
2023/01/25 08:03:45;;;;;;;71.70;38.20;;;2.70;99.90;;;;;;5064744;28;20054;-60
2023/01/25 08:06:11;;;;;;;88.80;42.35;;;4.10;99.90;;;;;;5071224;28;20032;-59
2023/01/25 08:08:43;;;;;;;65.70;32.00;;;2.70;99.90;;;;;;5055679;28;20068;-59
2023/01/25 08:11:19;;;;;;;95.15;40.40;;;3.10;99.90;;;;;;5054310;28;20498;-60
2023/01/25 08:13:45;;;;;;;98.10;41.10;;;3.70;99.90;;;;;;5052993;28;20041;-60
2023/01/25 08:16:15;;;;;;;70.00;34.00;;;3.60;1.00;;;;;;5050096;28;20056;-61
2023/01/25 08:18:40;;;;;;;69.70;30.85;;;4.10;1.00;;;;;;5046098;28;20025;-60
2023/01/25 08:21:06;;;;;;;69.28;29.95;;;4.40;1.00;;;;;;5050398;28;20059;-60
2023/01/25 08:23:31;;;;;;;82.60;35.30;;;4.00;1.00;;;;;;5047376;28;20496;-60
2023/01/25 08:26:04;;;;;;;75.30;34.83;;;3.80;1.00;;;;;;5040131;28;20033;-60
2023/01/25 08:28:30;;;;;;;73.78;35.65;;;2.80;51.30;;;;;;5050565;28;20052;-60
2023/01/25 08:31:09;;;;;;;88.95;37.55;;;4.30;96.30;;;;;;5064989;28;20402;-59
2023/01/25 08:33:35;;;;;;;125.45;43.63;;;2.90;99.90;;;;;;5066917;28;20048;-59
2023/01/25 08:36:02;;;;;;;151.23;45.72;;;3.20;99.90;;;;;;5057197;28;20085;-59
2023/01/25 08:38:27;;;;;;;166.32;47.53;;;3.30;99.90;;;;;;5039874;28;20124;-61
2023/01/25 08:40:53;;;;;;;168.55;45.25;;;2.90;99.90;;;;;;5058509;28;20617;-59
2023/01/25 08:43:18;;;;;;;219.23;48.97;;;2.90;99.90;;;;;;5054205;28;20071;-60
2023/01/25 08:45:44;;;;;;;208.20;47.70;;;4.30;99.90;;;;;;5040632;28;20045;-58
2023/01/25 08:48:14;;;;;;;136.02;40.40;;;4.20;99.90;;;;;;5056247;28;20091;-59
2023/01/25 08:50:45;;;;;;;152.98;41.30;;;2.80;99.90;;;;;;5061558;28;20040;-59
2023/01/25 08:53:10;;;;;;;133.07;43.00;;;4.20;99.90;;;;;;5073204;28;20028;-61
2023/01/25 08:55:36;;;;;;;137.50;41.15;;;3.80;99.90;;;;;;5051634;28;20567;-59
2023/01/25 08:58:01;;;;;;;101.50;36.60;;;2.80;99.90;;;;;;5048139;28;20433;-61
2023/01/25 09:00:27;;;;;;;112.00;39.78;;;4.60;99.90;;;;;;5049083;28;20390;-59
2023/01/25 09:02:52;;;;;;;112.55;37.20;;;3.10;99.90;;;;;;5055144;28;20394;-60
2023/01/25 09:05:18;;;;;;;111.82;38.33;;;4.70;99.90;;;;;;5053630;28;20037;-59
2023/01/25 09:07:44;;;;;;;147.48;44.65;;;4.70;99.90;;;;;;5047387;28;20064;-61
2023/01/25 09:10:10;;;;;;;181.50;49.28;;;4.60;99.90;;;;;;5040542;28;20051;-59
2023/01/25 09:12:35;;;;;;;164.68;46.28;;;4.20;99.90;;;;;;5047954;28;20083;-59
2023/01/25 09:15:02;;;;;;;219.82;52.95;;;2.90;99.90;;;;;;5046923;28;20036;-59
2023/01/25 09:17:28;;;;;;;609.60;76.13;;;5.00;99.90;;;;;;5042940;28;20501;-60
2023/01/25 09:19:53;;;;;;;198.77;50.47;;;3.40;99.90;;;;;;5052831;28;20036;-59
2023/01/25 09:22:19;;;;;;;258.23;54.72;;;4.90;99.90;;;;;;5051514;28;20036;-59
2023/01/25 09:24:44;;;;;;;137.30;42.80;;;3.90;99.90;;;;;;5053079;28;20045;-60
2023/01/25 09:27:10;;;;;;;150.15;45.35;;;4.70;99.90;;;;;;5043609;28;20041;-60
2023/01/25 09:29:35;;;;;;;150.73;46.67;;;4.40;99.90;;;;;;5054273;28;20036;-61
2023/01/25 09:32:01;;;;;;;163.57;47.10;;;4.20;99.90;;;;;;5053577;28;20037;-62
2023/01/25 09:34:27;;;;;;;152.85;46.58;;;4.10;99.90;;;;;;5052535;28;20033;-59
2023/01/25 09:36:52;;;;;;;96.97;35.00;;;3.90;99.90;;;;;;5049769;28;20041;-59
2023/01/25 09:39:19;;;;;;;265.52;60.90;;;3.10;99.90;;;;;;5050346;28;20033;-59
2023/01/25 09:42:13;;;;;;;254.82;58.72;;;3.00;99.90;;;;;;5054191;28;20036;-60
2023/01/25 09:45:02;;;;;;;252.65;57.63;;;4.30;99.90;;;;;;5045160;28;20043;-59
2023/01/25 09:47:58;;;;;;;251.05;59.50;;;4.80;99.90;;;;;;5051431;28;20512;-59
2023/01/25 09:50:35;;;;;;;131.95;40.75;;;3.50;99.90;;;;;;5047924;28;20064;-59
2023/01/25 09:53:15;;;;;;;170.07;48.90;;;5.00;99.90;;;;;;5039771;28;20033;-60
2023/01/25 09:55:41;;;;;;;168.18;49.78;;;3.00;99.90;;;;;;5049793;28;20044;-59
2023/01/25 09:58:18;;;;;;;112.28;37.00;;;3.40;99.90;;;;;;5054962;28;20403;-59
2023/01/25 10:00:46;;;;;;;233.70;63.80;;;5.10;99.90;;;;;;5051610;28;20181;-60
2023/01/25 10:03:39;;;;;;;191.68;53.85;;;5.10;99.90;;;;;;5046775;28;20041;-59
2023/01/25 10:06:07;;;;;;;226.48;60.10;;;4.90;99.90;;;;;;5051302;28;20049;-60
2023/01/25 10:08:47;;;;;;;220.23;57.15;;;4.00;99.90;;;;;;5044844;28;20055;-61
2023/01/25 10:11:15;;;;;;;144.82;46.60;;;4.80;99.90;;;;;;5044311;28;20076;-60
2023/01/25 10:13:42;;;;;;;219.60;60.35;;;4.90;99.90;;;;;;5057796;28;20403;-59
2023/01/25 10:16:27;;;;;;;137.10;45.75;;;5.30;99.90;;;;;;5052244;28;20032;-60
2023/01/25 10:18:53;;;;;;;248.00;68.80;;;4.20;99.90;;;;;;5054777;28;20040;-59
2023/01/25 10:21:26;;;;;;;179.23;55.30;;;3.80;99.90;;;;;;5053574;28;20056;-59
2023/01/25 10:24:19;;;;;;;241.73;67.82;;;4.10;99.90;;;;;;5051927;28;20046;-60
2023/01/25 10:26:51;;;;;;;231.32;67.85;;;4.00;99.90;;;;;;5040715;28;20044;-60
2023/01/25 10:29:22;;;;;;;148.65;51.42;;;4.90;99.90;;;;;;5049202;28;20116;-59
2023/01/25 10:31:51;;;;;;;147.70;55.78;;;4.10;99.90;;;;;;5043075;28;20403;-59
2023/01/25 10:34:22;;;;;;;121.80;44.65;;;3.60;99.90;;;;;;5051254;28;20086;-60
2023/01/25 10:36:53;;;;;;;141.98;52.83;;;5.50;99.90;;;;;;5050743;28;20060;-61
2023/01/25 10:39:20;;;;;;;164.65;59.38;;;3.70;99.90;;;;;;5051047;28;20033;-59
2023/01/25 10:42:00;;;;;;;209.63;71.07;;;4.30;99.90;;;;;;5045368;28;20033;-59
2023/01/25 10:44:26;;;;;;;200.35;67.85;;;3.80;99.90;;;;;;5055086;28;20090;-59
2023/01/25 10:47:14;;;;;;;193.90;68.15;;;4.00;99.90;;;;;;5056190;28;20041;-59
2023/01/25 10:49:56;;;;;;;518.60;82.78;;;5.10;99.90;;;;;;5055061;28;20097;-59
2023/01/25 10:52:30;;;;;;;132.27;54.97;;;4.60;99.90;;;;;;5054019;28;20129;-59
2023/01/25 10:55:27;;;;;;;121.45;50.65;;;4.40;99.90;;;;;;5057102;28;20037;-60
2023/01/25 10:57:54;;;;;;;;;;;5.00;99.90;;;;;;5051275;28;20032;-60
2023/01/25 11:00:30;;;;;;;126.55;54.25;;;5.40;99.90;;;;;;5049248;28;19982;-60
2023/01/25 11:02:56;;;;;;;150.70;62.15;;;5.40;99.90;;;;;;5053197;28;20128;-60
2023/01/25 11:05:34;;;;;;;117.57;51.00;;;4.30;99.90;;;;;;5047419;28;20041;-59
2023/01/25 11:08:33;;;;;;;114.07;50.00;;;4.30;99.90;;;;;;5062980;28;20059;-59
2023/01/25 11:10:59;;;;;;;101.57;48.53;;;6.00;99.90;;;;;;5051786;28;20069;-59
2023/01/25 11:13:32;;;;;;;100.40;45.83;;;6.10;99.90;;;;;;5055088;28;20120;-60
2023/01/25 11:16:00;;;;;;;100.50;47.10;;;4.90;99.90;;;;;;5046343;28;20044;-61
2023/01/25 11:18:32;;;;;;;118.78;53.67;;;4.80;99.90;;;;;;5043585;28;20040;-60
2023/01/25 11:21:05;;;;;;;114.97;52.88;;;4.70;99.90;;;;;;5055832;28;20171;-60
2023/01/25 11:23:32;;;;;;;95.00;44.88;;;6.10;99.90;;;;;;5053090;28;20053;-60
2023/01/25 11:26:18;;;;;;;121.10;56.13;;;5.90;99.90;;;;;;5054434;28;20507;-60
2023/01/25 11:28:47;;;;;;;98.80;42.80;;;4.70;99.90;;;;;;5049620;28;20114;-60
2023/01/25 11:31:16;;;;;;;98.68;46.10;;;5.10;99.90;;;;;;5050056;28;20486;-59
2023/01/25 11:33:41;;;;;;;101.78;47.40;;;5.20;99.90;;;;;;5052921;28;20079;-60
2023/01/25 11:36:41;;;;;;;90.50;42.42;;;6.30;99.90;;;;;;5051780;28;20449;-60
2023/01/25 11:39:42;;;;;;;91.57;46.10;;;6.10;99.90;;;;;;5047750;28;20476;-59
2023/01/25 11:42:19;;;;;;;97.97;49.35;;;5.60;99.90;;;;;;5047190;28;20032;-60
2023/01/25 11:44:50;;;;;;;110.80;51.03;;;5.60;99.90;;;;;;5052305;28;20044;-59
2023/01/25 11:47:39;;;;;;;84.90;42.45;;;5.70;99.90;;;;;;5053209;28;20085;-59
2023/01/25 11:50:32;;;;;;;92.90;43.78;;;6.10;99.90;;;;;;5047049;28;20486;-60
2023/01/25 11:53:10;;;;;;;87.55;43.28;;;6.40;99.90;;;;;;5059680;28;20036;-60
2023/01/25 11:56:05;;;;;;;98.20;48.97;;;5.70;99.90;;;;;;5053690;28;20486;-60
2023/01/25 11:59:02;;;;;;;104.85;51.47;;;5.80;99.90;;;;;;5041462;28;20038;-61
2023/01/25 12:02:07;;;;;;;100.15;49.15;;;5.80;99.90;;;;;;5051306;28;20028;-60
2023/01/25 12:05:10;;;;;;;78.30;37.88;;;6.30;99.90;;;;;;5046989;28;20123;-59
2023/01/25 12:08:13;;;;;;;89.18;41.00;;;5.90;99.90;;;;;;5049245;28;20087;-59
2023/01/25 12:11:22;;;;;;;95.90;49.25;;;6.20;99.90;;;;;;5050552;28;20140;-60
2023/01/25 12:13:58;;;;;;;87.50;42.45;;;6.30;99.90;;;;;;5052762;28;20033;-60
2023/01/25 12:16:51;;;;;;;79.03;37.42;;;6.30;99.90;;;;;;5050540;28;20049;-60
2023/01/25 12:19:44;;;;;;;96.22;48.92;;;5.30;99.90;;;;;;5065764;28;20076;-60
2023/01/25 12:22:47;;;;;;;104.45;53.10;;;5.40;99.90;;;;;;5059180;28;20047;-59
2023/01/25 12:25:32;;;;;;;89.68;41.92;;;5.30;99.90;;;;;;5043464;28;20044;-60
2023/01/25 12:28:13;;;;;;;109.57;53.92;;;5.20;99.90;;;;;;5052327;28;20025;-60
2023/01/25 12:31:11;;;;;;;93.00;45.10;;;6.40;99.90;;;;;;5029605;28;20068;-61
2023/01/25 12:33:56;;;;;;;108.43;56.40;;;5.40;99.90;;;;;;5059070;28;20047;-63
2023/01/25 12:36:30;;;;;;;94.55;46.40;;;6.30;99.90;;;;;;5042338;28;20037;-60
2023/01/25 12:39:16;;;;;;;100.43;50.20;;;6.50;99.90;;;;;;5048838;28;20375;-60
2023/01/25 12:41:57;;;;;;;93.70;48.13;;;6.20;99.90;;;;;;5044433;28;20029;-60
2023/01/25 12:44:46;;;;;;;99.53;51.22;;;6.50;99.90;;;;;;5067785;28;20045;-59
2023/01/25 12:47:38;;;;;;;262.15;53.90;;;6.10;99.90;;;;;;5049447;28;20498;-60
2023/01/25 12:50:12;;;;;;;99.07;51.53;;;6.70;99.90;;;;;;5050721;28;20044;-59
2023/01/25 12:52:50;;;;;;;96.53;49.83;;;6.70;99.90;;;;;;5052488;28;20513;-60
2023/01/25 12:55:17;;;;;;;87.40;47.30;;;6.20;99.90;;;;;;5051539;28;20040;-61
2023/01/25 12:58:19;;;;;;;89.15;46.85;;;5.70;99.90;;;;;;5054027;28;20029;-60
2023/01/25 13:01:06;;;;;;;90.30;47.92;;;5.70;99.90;;;;;;5047669;28;20041;-61